createdAt,value
2018-12-22T00:00:00.136Z,100.00
2018-12-22T01:09:46.362Z,100.00
2018-12-22T01:16:44.703Z,100.00
2018-12-22T01:46:08.927Z,100.00
2018-12-22T01:53:13.795Z,100.00
2018-12-22T01:56:04.311Z,100.00
2018-12-22T02:06:41.808Z,100.00
2018-12-22T02:09:53.894Z,100.00
2018-12-22T02:25:01.496Z,100.00
2018-12-22T02:30:56.228Z,100.00
2018-12-22T02:34:01.199Z,100.00
2018-12-22T02:40:31.743Z,100.00
2018-12-22T02:43:16.808Z,100.00
2018-12-22T02:58:04.615Z,100.00
2018-12-22T03:18:53.249Z,100.00
2018-12-22T03:22:05.198Z,100.00
2018-12-22T03:37:21.356Z,100.00
2018-12-22T03:43:51.062Z,100.00
2018-12-22T03:46:34.862Z,100.00
2018-12-22T03:49:13.742Z,100.00
2018-12-22T03:52:21.726Z,100.00
2018-12-22T03:55:02.374Z,100.00
2018-12-22T03:57:44.313Z,100.00
2018-12-22T04:00:20.031Z,100.00
2018-12-22T04:03:01.418Z,100.00
2018-12-22T04:05:52.394Z,100.00
2018-12-22T04:08:22.514Z,100.00
2018-12-22T04:14:59.516Z,100.00
2018-12-22T04:17:36.084Z,100.00
2018-12-22T04:20:11.515Z,100.00
2018-12-22T04:22:54.560Z,100.00
2018-12-22T04:25:29.727Z,100.00
2018-12-22T04:32:01.977Z,100.00
2018-12-22T04:34:42.715Z,100.00
2018-12-22T04:37:21.603Z,100.00
2018-12-22T04:40:08.361Z,100.00
2018-12-22T04:42:45.370Z,100.00
2018-12-22T04:45:20.209Z,100.00
2018-12-22T04:48:00.501Z,100.00
2018-12-22T04:51:12.214Z,100.00
2018-12-22T04:54:05.133Z,100.00
2018-12-22T04:56:47.913Z,100.00
2018-12-22T05:03:35.869Z,100.00
2018-12-22T05:06:08.573Z,100.00
2018-12-22T05:08:42.933Z,100.00
2018-12-22T05:11:19.171Z,100.00
2018-12-22T05:14:09.811Z,100.00
2018-12-22T05:20:33.010Z,100.00
2018-12-22T05:23:15.198Z,100.00
2018-12-22T05:26:05.913Z,100.00
2018-12-22T05:28:47.487Z,100.00
2018-12-22T05:39:38.067Z,100.00
2018-12-22T05:42:15.916Z,100.00
2018-12-22T05:44:57.532Z,100.00
2018-12-22T05:47:28.023Z,100.00
2018-12-22T05:54:36.910Z,100.00
2018-12-22T05:57:13.102Z,100.00
2018-12-22T05:59:47.246Z,100.00
2018-12-22T06:02:29.360Z,100.00
2018-12-22T06:05:22.238Z,100.00
2018-12-22T06:08:00.340Z,100.00
2018-12-22T06:10:32.266Z,100.00
2018-12-22T06:13:13.137Z,100.00
2018-12-22T06:19:50.108Z,100.00
2018-12-22T06:22:31.461Z,100.00
2018-12-22T06:25:10.150Z,100.00
2018-12-22T06:27:49.984Z,100.00
2018-12-22T06:30:27.918Z,100.00
2018-12-22T06:32:59.185Z,100.00
2018-12-22T06:35:30.983Z,100.00
2018-12-22T06:38:01.115Z,100.00
2018-12-22T06:40:33.923Z,100.00
2018-12-22T06:43:04.756Z,100.00
2018-12-22T06:45:35.055Z,100.00
2018-12-22T06:48:05.225Z,100.00
2018-12-22T06:50:37.063Z,100.00
2018-12-22T06:53:07.885Z,100.00
2018-12-22T06:55:38.345Z,100.00
2018-12-22T06:58:09.066Z,100.00
2018-12-22T07:00:39.858Z,100.00
2018-12-22T07:03:10.731Z,100.00
2018-12-22T07:05:41.241Z,100.00
2018-12-22T07:08:12.481Z,100.00
2018-12-22T07:10:43.388Z,100.00
2018-12-22T07:13:13.848Z,100.00
2018-12-22T07:15:44.155Z,100.00
2018-12-22T07:18:14.180Z,100.00
2018-12-22T07:20:45.266Z,100.00
2018-12-22T07:23:22.019Z,100.00
2018-12-22T07:25:53.233Z,100.00
2018-12-22T07:28:23.275Z,100.00
2018-12-22T07:30:54.698Z,100.00
2018-12-22T07:33:27.399Z,100.00
2018-12-22T07:36:01.640Z,100.00
2018-12-22T07:38:32.571Z,100.00
2018-12-22T07:41:05.296Z,100.00
2018-12-22T07:43:36.437Z,100.00
2018-12-22T07:46:13.734Z,100.00
2018-12-22T07:48:44.384Z,100.00
2018-12-22T07:51:21.282Z,100.00
2018-12-22T07:53:51.504Z,100.00
2018-12-22T07:56:30.378Z,100.00
2018-12-22T07:59:01.545Z,100.00
2018-12-22T08:01:35.204Z,100.00
2018-12-22T08:04:05.403Z,100.00
2018-12-22T08:06:36.335Z,100.00
2018-12-22T08:09:08.776Z,100.00
2018-12-22T08:11:41.505Z,100.00
2018-12-22T08:14:14.480Z,100.00
2018-12-22T08:16:45.510Z,100.00
2018-12-22T08:19:16.427Z,100.00
2018-12-22T08:21:46.538Z,100.00
2018-12-22T08:24:17.414Z,100.00
2018-12-22T08:26:47.412Z,100.00
2018-12-22T08:29:18.393Z,100.00
2018-12-22T08:31:48.444Z,100.00
2018-12-22T08:34:19.364Z,100.00
2018-12-22T08:36:49.771Z,100.00
2018-12-22T08:39:20.416Z,100.00
2018-12-22T08:41:50.516Z,100.00
2018-12-22T08:44:21.789Z,100.00
2018-12-22T08:46:53.130Z,100.00
2018-12-22T08:49:23.310Z,100.00
2018-12-22T08:51:53.321Z,100.00
2018-12-22T08:54:23.569Z,100.00
2018-12-22T08:56:54.582Z,100.00
2018-12-22T08:59:25.075Z,100.00
2018-12-22T09:02:01.720Z,100.00
2018-12-22T09:04:37.005Z,100.00
2018-12-22T09:07:15.957Z,100.00
2018-12-22T09:09:48.715Z,100.00
2018-12-22T09:12:19.881Z,100.00
2018-12-22T09:14:50.702Z,100.00
2018-12-22T09:17:23.838Z,100.00
2018-12-22T09:22:40.405Z,100.00
2018-12-22T09:25:15.224Z,100.00
2018-12-22T09:27:48.471Z,100.00
2018-12-22T09:30:21.710Z,100.00
2018-12-22T09:32:52.695Z,100.00
2018-12-22T09:35:23.994Z,100.00
2018-12-22T09:37:57.339Z,100.00
2018-12-22T09:40:27.847Z,100.00
2018-12-22T09:42:58.627Z,100.00
2018-12-22T09:45:29.825Z,100.00
2018-12-22T09:48:01.831Z,100.00
2018-12-22T09:50:43.071Z,100.00
2018-12-22T09:53:23.379Z,100.00
2018-12-22T09:55:54.917Z,100.00
2018-12-22T09:58:28.833Z,100.00
2018-12-22T10:00:59.995Z,100.00
2018-12-22T10:03:35.913Z,100.00
2018-12-22T10:06:07.984Z,100.00
2018-12-22T10:08:41.038Z,100.00
2018-12-22T10:11:12.566Z,100.00
2018-12-22T10:13:45.011Z,100.00
2018-12-22T10:16:18.799Z,100.00
2018-12-22T10:18:50.131Z,100.00
2018-12-22T10:21:23.024Z,100.00
2018-12-22T10:23:54.378Z,100.00
2018-12-22T10:26:24.986Z,100.00
2018-12-22T10:29:00.066Z,100.00
2018-12-22T10:31:32.212Z,100.00
2018-12-22T10:34:02.943Z,100.00
2018-12-22T10:36:34.112Z,100.00
2018-12-22T10:39:07.031Z,100.00
2018-12-22T10:41:38.291Z,99.55
2018-12-22T10:44:08.438Z,99.73
2018-12-22T10:46:39.260Z,99.35
2018-12-22T10:49:16.006Z,98.96
2018-12-22T10:51:46.267Z,98.99
2018-12-22T10:54:19.925Z,99.27
2018-12-22T10:56:50.294Z,97.57
2018-12-22T10:59:21.519Z,95.95
2018-12-22T11:01:52.940Z,95.04
2018-12-22T11:04:25.179Z,96.01
2018-12-22T11:07:28.884Z,95.91
2018-12-22T11:10:00.283Z,95.77
2018-12-22T11:12:31.132Z,95.97
2018-12-22T11:15:01.352Z,95.69
2018-12-22T11:17:32.429Z,96.49
2018-12-22T11:20:03.655Z,97.23
2018-12-22T11:22:37.997Z,97.79
2018-12-22T11:25:19.428Z,97.76
2018-12-22T11:27:57.964Z,98.75
2018-12-22T11:30:35.972Z,98.80
2018-12-22T11:33:12.031Z,99.24
2018-12-22T11:35:48.832Z,99.43
2018-12-22T11:38:28.994Z,100.00
2018-12-22T11:41:15.080Z,100.00
2018-12-22T11:44:06.435Z,100.00
2018-12-22T11:46:38.967Z,99.88
2018-12-22T11:49:43.687Z,100.00
2018-12-22T11:52:20.829Z,100.00
2018-12-22T11:54:55.932Z,100.00
2018-12-22T11:57:35.293Z,100.00
2018-12-22T12:00:19.032Z,100.00
2018-12-22T12:02:55.234Z,100.00
2018-12-22T12:05:36.136Z,100.00
2018-12-22T12:08:07.147Z,100.00
2018-12-22T12:10:45.865Z,100.00
2018-12-22T12:13:17.432Z,100.00
2018-12-22T12:15:51.961Z,100.00
2018-12-22T12:18:49.209Z,100.00
2018-12-22T12:21:19.813Z,100.00
2018-12-22T12:23:55.189Z,100.00
2018-12-22T12:26:26.982Z,100.00
2018-12-22T12:29:14.223Z,100.00
2018-12-22T12:31:52.557Z,100.00
2018-12-22T12:34:33.777Z,100.00
2018-12-22T12:37:11.781Z,99.55
2018-12-22T12:39:55.660Z,99.70
2018-12-22T12:42:26.971Z,99.95
2018-12-22T12:45:06.403Z,99.64
2018-12-22T12:47:38.081Z,98.56
2018-12-22T12:50:11.353Z,98.42
2018-12-22T12:52:43.764Z,98.42
2018-12-22T12:55:14.706Z,98.40
2018-12-22T12:57:55.636Z,97.92
2018-12-22T13:00:41.235Z,98.37
2018-12-22T13:03:24.964Z,97.65
2018-12-22T13:06:05.952Z,98.21
2018-12-22T13:08:47.840Z,98.38
2018-12-22T13:11:18.617Z,98.76
2018-12-22T13:13:53.944Z,98.06
2018-12-22T13:16:35.718Z,98.37
2018-12-22T13:19:42.294Z,97.62
2018-12-22T13:22:36.208Z,97.67
2018-12-22T13:25:06.555Z,97.82
2018-12-22T13:27:38.084Z,97.82
2018-12-22T13:30:10.977Z,98.09
2018-12-22T13:32:56.463Z,98.22
2018-12-22T13:35:34.704Z,98.43
2018-12-22T13:38:10.685Z,98.95
2018-12-22T13:40:42.029Z,98.99
2018-12-22T13:43:17.449Z,98.66
2018-12-22T13:46:03.065Z,99.30
2018-12-22T13:48:40.803Z,99.76
2018-12-22T13:51:33.368Z,100.00
2018-12-22T13:54:24.101Z,100.00
2018-12-22T13:57:00.968Z,100.00
2018-12-22T13:59:34.030Z,100.00
2018-12-22T14:02:07.634Z,100.00
2018-12-22T14:04:56.551Z,100.00
2018-12-22T14:07:40.051Z,100.00
2018-12-22T14:10:19.948Z,100.00
2018-12-22T14:12:50.880Z,100.00
2018-12-22T14:15:23.211Z,100.00
2018-12-22T14:20:09.932Z,100.00
2018-12-22T14:22:41.087Z,100.00
2018-12-22T14:25:19.902Z,100.00
2018-12-22T14:27:52.118Z,100.00
2018-12-22T14:30:24.249Z,100.00
2018-12-22T14:32:56.199Z,100.00
2018-12-22T14:35:38.413Z,100.00
2018-12-22T14:38:09.339Z,100.00
2018-12-22T14:40:40.347Z,100.00
2018-12-22T14:43:12.174Z,100.00
2018-12-22T14:45:42.312Z,100.00
2018-12-22T14:48:15.137Z,100.00
2018-12-22T14:50:47.520Z,97.97
2018-12-22T14:53:23.465Z,97.18
2018-12-22T14:56:03.884Z,97.24
2018-12-22T14:58:36.252Z,96.46
2018-12-22T15:01:10.193Z,95.72
2018-12-22T15:03:41.362Z,96.18
2018-12-22T15:06:14.221Z,95.95
2018-12-22T15:08:49.696Z,95.19
2018-12-22T15:11:25.192Z,94.37
2018-12-22T15:13:55.350Z,94.48
2018-12-22T15:16:34.296Z,94.47
2018-12-22T15:19:07.128Z,94.29
2018-12-22T15:21:48.329Z,93.98
2018-12-22T15:24:22.344Z,93.53
2018-12-22T15:26:55.050Z,93.30
2018-12-22T15:29:29.560Z,94.02
2018-12-22T15:32:02.275Z,93.13
